Time;durP1;ratioP1;P1;durP2;ratioP2;P2;SDS_P1;SDS_P2;PMS_P1;PMS_P2;Temp;Humidity;BMP_temperature;BMP_pressure;BME280_temperature;BME280_humidity;BME280_pressure;Samples;Min_cycle;Max_cycle;Signal;HPM_P1;HPM_P2
2021/11/22 00:00:23;;;;;;;8.07;4.43;;;6.30;99.90;;;7.34;100.00;100044.03;4993724;28;20286;-62
2021/11/22 00:02:54;;;;;;;10.83;4.50;;;6.40;99.90;;;7.02;100.00;100042.03;4993616;28;20215;-62
2021/11/22 00:05:23;;;;;;;6.43;4.17;;;6.30;99.90;;;7.11;100.00;100041.69;4993668;28;20251;-63
2021/11/22 00:07:51;;;;;;;7.83;4.43;;;6.30;99.90;;;7.13;100.00;100058.41;4993545;28;20295;-62
2021/11/22 00:10:20;;;;;;;7.57;4.30;;;6.40;99.90;;;7.08;100.00;100054.66;4993583;28;20885;-62
2021/11/22 00:12:50;;;;;;;8.90;4.60;;;6.30;99.90;;;7.12;100.00;100056.72;4993222;28;20242;-62
2021/11/22 00:15:20;;;;;;;9.83;4.73;;;6.30;99.90;;;7.17;100.00;100059.63;4993096;28;20231;-62
2021/11/22 00:17:48;;;;;;;7.73;4.30;;;6.30;99.90;;;6.89;100.00;100058.06;4993253;28;20297;-63
2021/11/22 00:20:21;;;;;;;8.17;4.90;;;6.30;99.90;;;7.08;100.00;100066.22;4993380;28;20207;-62
2021/11/22 00:22:50;;;;;;;10.37;4.53;;;6.30;99.90;;;6.93;100.00;100062.84;4992846;28;20670;-61
2021/11/22 00:25:21;;;;;;;8.80;4.40;;;6.30;99.90;;;6.87;100.00;100071.66;4992893;28;20842;-62
2021/11/22 00:27:51;;;;;;;7.47;4.50;;;6.20;99.90;;;6.70;100.00;100073.00;4993186;28;20604;-63
2021/11/22 00:30:20;;;;;;;6.47;4.40;;;6.10;99.90;;;6.57;100.00;100083.63;4992972;28;20278;-61
2021/11/22 00:32:48;;;;;;;7.60;4.70;;;6.00;99.90;;;6.62;100.00;100078.50;4992860;28;20290;-62
2021/11/22 00:35:17;;;;;;;8.97;4.83;;;5.90;99.90;;;6.63;100.00;100085.50;4993074;28;20299;-61
2021/11/22 00:37:50;;;;;;;10.83;5.50;;;5.90;99.90;;;6.55;100.00;100082.16;4993004;28;20254;-62
2021/11/22 00:40:20;;;;;;;9.60;4.83;;;5.90;99.90;;;6.61;100.00;100082.22;4993046;28;20479;-62
2021/11/22 00:42:50;;;;;;;12.60;4.90;;;5.90;99.90;;;6.76;100.00;100082.94;4992627;28;20679;-64
2021/11/22 00:45:19;;;;;;;9.23;5.03;;;5.80;99.90;;;6.57;100.00;100083.63;4992761;28;20283;-62
2021/11/22 00:47:48;;;;;;;8.27;4.77;;;5.90;99.90;;;6.48;100.00;100095.47;4992550;28;20238;-62
2021/11/22 00:50:17;;;;;;;9.90;4.90;;;5.80;99.90;;;6.38;100.00;100096.84;4992897;28;20234;-62
2021/11/22 00:52:46;;;;;;;9.17;5.33;;;5.70;99.90;;;6.19;100.00;100098.31;4991771;28;20203;-62
2021/11/22 00:55:14;;;;;;;8.97;4.70;;;5.60;99.90;;;6.15;100.00;100105.94;4992881;28;20305;-62
2021/11/22 00:57:43;;;;;;;10.23;5.33;;;5.60;99.90;;;6.35;100.00;100111.44;4993237;28;20238;-62
2021/11/22 01:00:16;;;;;;;9.83;5.17;;;5.60;99.90;;;6.17;100.00;100114.56;4992830;28;20291;-62
2021/11/22 01:02:44;;;;;;;9.73;5.53;;;5.50;99.90;;;6.06;100.00;100106.25;4992408;28;20226;-61
2021/11/22 01:05:14;;;;;;;8.37;5.23;;;5.50;99.90;;;6.06;100.00;100108.91;4992179;28;20261;-62
2021/11/22 01:07:42;;;;;;;9.93;5.50;;;5.40;99.90;;;6.12;100.00;100114.31;4992196;28;20262;-62
2021/11/22 01:10:13;;;;;;;8.20;5.23;;;5.40;99.90;;;6.00;100.00;100115.03;4992354;28;20517;-62
2021/11/22 01:12:42;;;;;;;7.67;5.20;;;5.40;99.90;;;5.83;100.00;100124.34;4992160;28;20230;-63
2021/11/22 01:15:16;;;;;;;6.87;5.27;;;5.30;99.90;;;5.75;100.00;100125.22;4991870;28;20702;-62
2021/11/22 01:17:45;;;;;;;7.97;5.47;;;5.20;99.90;;;5.67;100.00;100122.69;4992228;28;20299;-63
2021/11/22 01:20:18;;;;;;;7.60;5.30;;;5.10;99.90;;;5.85;100.00;100128.44;4991861;28;20246;-62
2021/11/22 01:22:46;;;;;;;8.27;5.40;;;5.10;99.90;;;5.93;100.00;100122.16;4992005;28;20203;-63
2021/11/22 01:25:16;;;;;;;10.10;5.67;;;5.10;99.90;;;5.90;100.00;100133.25;4991953;28;20215;-61
2021/11/22 01:27:47;;;;;;;9.80;6.17;;;5.10;99.90;;;5.71;100.00;100131.16;4992110;28;20207;-62
2021/11/22 01:30:17;;;;;;;9.70;5.70;;;5.10;99.90;;;5.55;100.00;100123.34;4991950;28;20700;-62
2021/11/22 01:32:47;;;;;;;10.97;5.83;;;5.00;99.90;;;5.52;100.00;100126.41;4992029;28;20191;-62
2021/11/22 01:35:17;;;;;;;11.47;5.63;;;5.00;99.90;;;5.51;100.00;100127.44;4992023;28;20298;-63
2021/11/22 01:37:47;;;;;;;11.30;5.40;;;5.00;99.90;;;5.46;100.00;100130.69;4991579;28;20190;-62
2021/11/22 01:40:24;;;;;;;9.77;5.80;;;4.90;99.90;;;5.62;100.00;100132.28;4991894;28;20273;-62
2021/11/22 01:42:54;;;;;;;10.23;5.73;;;4.90;99.90;;;5.66;100.00;100133.56;4991706;28;20230;-62
2021/11/22 01:45:25;;;;;;;9.37;5.30;;;4.90;99.90;;;5.54;100.00;100133.22;4991848;28;20210;-62
2021/11/22 01:47:55;;;;;;;9.23;5.67;;;4.90;99.90;;;5.50;100.00;100136.44;4991543;28;20630;-61
2021/11/22 01:50:24;;;;;;;9.70;5.43;;;4.90;99.90;;;5.45;100.00;100141.53;4991809;28;20241;-62
2021/11/22 01:52:54;;;;;;;11.47;5.73;;;4.90;99.90;;;5.43;100.00;100127.56;4991555;28;20205;-63
2021/11/22 01:55:26;;;;;;;10.70;5.53;;;4.80;99.90;;;5.30;100.00;100141.56;4991860;28;20539;-60
2021/11/22 01:57:56;;;;;;;13.17;6.40;;;4.70;99.90;;;5.30;100.00;100143.41;4991765;28;20291;-61
2021/11/22 02:00:31;;;;;;;11.67;6.47;;;4.70;99.90;;;5.39;100.00;100142.28;4991773;28;20276;-61
2021/11/22 02:03:02;;;;;;;8.40;6.17;;;4.70;99.90;;;5.23;100.00;100142.47;4991368;28;20198;-62
2021/11/22 02:05:31;;;;;;;8.47;5.97;;;4.70;99.90;;;5.13;100.00;100152.63;4991187;28;20275;-62
2021/11/22 02:08:00;;;;;;;10.67;6.23;;;4.60;99.90;;;5.24;100.00;100157.50;4991330;28;20265;-62
2021/11/22 02:10:29;;;;;;;15.03;6.57;;;4.70;99.90;;;5.44;100.00;100159.41;4991455;28;20261;-61
2021/11/22 02:12:58;;;;;;;10.80;5.93;;;4.70;99.90;;;5.52;100.00;100161.97;4991268;28;20292;-62
2021/11/22 02:15:28;;;;;;;9.90;7.20;;;4.80;99.90;;;5.76;100.00;100158.97;4991504;28;20203;-62
2021/11/22 02:17:58;;;;;;;9.63;6.13;;;4.90;99.90;;;5.76;100.00;100156.31;4991353;28;20610;-61
2021/11/22 02:20:31;;;;;;;11.63;6.10;;;5.00;99.90;;;5.69;100.00;100160.75;4991162;28;20684;-61
2021/11/22 02:23:03;;;;;;;12.30;6.23;;;5.00;99.90;;;5.79;100.00;100158.59;4991259;28;20206;-61
2021/11/22 02:25:34;;;;;;;7.67;5.73;;;5.00;99.90;;;5.70;100.00;100170.41;4991517;28;20223;-62
2021/11/22 02:28:04;;;;;;;9.23;5.70;;;5.00;99.90;;;5.83;100.00;100169.78;4991102;28;20740;-62
2021/11/22 02:30:37;;;;;;;7.97;5.23;;;5.10;99.90;;;6.05;100.00;100172.25;4991366;28;20234;-61
2021/11/22 02:33:09;;;;;;;8.63;5.43;;;5.20;99.90;;;5.87;100.00;100174.53;4991336;28;20816;-62
2021/11/22 02:35:44;;;;;;;11.40;6.13;;;5.10;99.90;;;5.98;100.00;100175.88;4991371;28;20236;-61
2021/11/22 02:38:28;;;;;;;9.90;5.90;;;5.20;99.90;;;5.85;100.00;100178.44;4991316;28;20215;-60
2021/11/22 02:40:57;;;;;;;8.03;5.53;;;5.20;99.90;;;5.97;100.00;100184.94;4991485;28;20241;-61
2021/11/22 02:43:27;;;;;;;10.17;5.27;;;5.20;99.90;;;6.16;100.00;100197.66;4990941;28;20319;-62
2021/11/22 02:45:56;;;;;;;10.00;5.63;;;5.20;99.90;;;6.46;100.00;100198.38;4991222;28;20191;-62
2021/11/22 02:48:25;;;;;;;7.13;5.33;;;5.40;99.90;;;6.46;100.00;100198.38;4990856;28;20710;-61
2021/11/22 02:50:54;;;;;;;8.57;5.50;;;5.40;99.90;;;6.52;100.00;100201.13;4990851;28;20215;-61
2021/11/22 02:53:25;;;;;;;8.80;5.70;;;5.50;99.90;;;6.41;100.00;100206.97;4990935;28;20257;-62
2021/11/22 02:55:54;;;;;;;8.30;5.57;;;5.50;99.90;;;6.54;100.00;100217.81;4991314;28;20199;-62
2021/11/22 02:58:25;;;;;;;8.90;5.60;;;5.60;99.90;;;6.58;100.00;100212.91;4990907;28;20391;-62
2021/11/22 03:00:54;;;;;;;10.77;6.03;;;5.70;99.90;;;6.61;100.00;100215.19;4991098;28;20237;-61
2021/11/22 03:03:28;;;;;;;11.60;6.97;;;5.70;99.90;;;6.72;100.00;100215.50;4991124;28;20210;-61
2021/11/22 03:06:11;;;;;;;9.63;6.70;;;5.70;99.90;;;6.72;100.00;100223.53;4990702;28;20699;-61
2021/11/22 03:08:42;;;;;;;13.63;7.43;;;5.80;99.90;;;6.58;100.00;100226.28;4990665;28;20317;-62
2021/11/22 03:11:13;;;;;;;14.23;8.30;;;5.70;99.90;;;6.47;100.00;100227.63;4991212;28;20233;-62
2021/11/22 03:13:44;;;;;;;14.93;8.83;;;5.70;99.90;;;6.66;100.00;100228.81;4990685;28;20318;-61
2021/11/22 03:16:15;;;;;;;14.03;8.87;;;5.70;99.90;;;6.73;100.00;100224.34;4992922;28;20661;-61
2021/11/22 03:18:44;;;;;;;13.20;8.70;;;5.80;99.90;;;6.58;100.00;100232.44;4994536;28;20183;-61
2021/11/22 03:21:13;;;;;;;12.43;8.73;;;5.80;99.90;;;6.71;100.00;100224.56;4994437;28;20238;-61
2021/11/22 03:23:43;;;;;;;12.43;8.80;;;5.80;99.90;;;6.77;100.00;100234.47;4994105;28;20286;-62
2021/11/22 03:26:11;;;;;;;14.70;9.00;;;5.90;99.90;;;6.84;100.00;100234.53;4994345;28;20289;-61
2021/11/22 03:28:40;;;;;;;14.20;10.00;;;5.90;99.90;;;6.81;100.00;100243.78;4994182;28;20313;-62
2021/11/22 03:31:08;;;;;;;16.17;9.40;;;5.90;99.90;;;6.74;100.00;100244.75;4994042;28;20243;-61
2021/11/22 03:33:37;;;;;;;12.40;8.73;;;5.90;99.90;;;6.68;100.00;100249.00;4994227;28;20203;-62
2021/11/22 03:36:05;;;;;;;12.37;9.30;;;5.90;99.90;;;6.96;100.00;100254.41;4994054;28;20207;-61
2021/11/22 03:38:35;;;;;;;14.53;9.60;;;5.90;99.90;;;6.92;100.00;100256.63;4993879;28;20286;-61
2021/11/22 03:41:10;;;;;;;14.17;8.83;;;6.00;99.90;;;6.82;100.00;100257.97;4993714;28;20299;-61
2021/11/22 03:43:46;;;;;;;10.03;8.20;;;5.90;99.90;;;6.83;100.00;100255.09;4993689;28;20221;-60
2021/11/22 03:46:16;;;;;;;15.03;9.00;;;5.90;99.90;;;6.94;100.00;100259.13;4993490;28;20287;-62
2021/11/22 03:48:44;;;;;;;10.40;7.87;;;6.00;99.90;;;6.91;100.00;100270.22;4993773;28;20273;-62
2021/11/22 03:51:13;;;;;;;9.97;8.07;;;6.00;99.90;;;6.78;100.00;100262.88;4993869;28;20251;-61
2021/11/22 03:53:42;;;;;;;13.40;8.57;;;5.90;99.90;;;6.68;100.00;100275.78;4993388;28;20729;-61
2021/11/22 03:56:11;;;;;;;13.37;8.97;;;5.90;99.90;;;6.70;100.00;100276.41;4993433;28;20236;-60
2021/11/22 03:58:40;;;;;;;11.93;7.97;;;5.80;99.90;;;6.70;100.00;100276.41;4993299;28;20207;-62
2021/11/22 04:01:08;;;;;;;14.23;8.97;;;5.90;99.90;;;6.54;100.00;100290.06;4993513;28;20215;-62
2021/11/22 04:03:37;;;;;;;13.03;9.17;;;5.80;99.90;;;6.67;100.00;100284.84;4993602;28;20525;-62
2021/11/22 04:06:05;;;;;;;13.47;8.90;;;5.80;99.90;;;6.49;100.00;100289.81;4993288;28;20732;-61
2021/11/22 04:08:33;;;;;;;13.63;9.70;;;5.70;99.90;;;6.41;100.00;100289.09;4993526;28;20325;-62
2021/11/22 04:11:04;;;;;;;15.50;10.30;;;5.70;99.90;;;6.63;100.00;100302.28;4993273;28;20678;-61
2021/11/22 04:13:32;;;;;;;13.47;9.87;;;5.80;99.90;;;6.79;100.00;100295.84;4993311;28;20235;-62
2021/11/22 04:16:01;;;;;;;15.43;10.80;;;5.80;99.90;;;6.76;100.00;100305.09;4993080;28;20806;-62
2021/11/22 04:18:31;;;;;;;16.40;10.80;;;5.80;99.90;;;6.80;100.00;100305.56;4993309;28;20203;-62
2021/11/22 04:21:00;;;;;;;18.20;11.10;;;5.80;99.90;;;6.62;100.00;100311.34;4992860;28;20667;-61
2021/11/22 04:23:29;;;;;;;15.10;9.97;;;5.80;99.90;;;6.58;100.00;100322.63;4992956;28;20641;-61
2021/11/22 04:25:58;;;;;;;15.97;10.57;;;5.80;99.90;;;6.49;100.00;100326.44;4993212;28;20212;-62
2021/11/22 04:28:27;;;;;;;15.40;10.70;;;5.70;99.90;;;6.74;100.00;100325.88;4992354;28;20224;-61
2021/11/22 04:30:56;;;;;;;13.90;9.37;;;5.80;99.90;;;6.76;100.00;100339.06;4992775;28;20250;-62
2021/11/22 04:33:24;;;;;;;11.77;8.97;;;5.80;99.90;;;6.68;100.00;100341.88;4993332;28;20246;-61
2021/11/22 04:35:52;;;;;;;15.43;10.10;;;5.80;99.90;;;6.67;100.00;100348.22;4992959;28;20625;-61
2021/11/22 04:38:20;;;;;;;14.43;9.43;;;5.80;99.90;;;6.72;100.00;100340.47;4992826;28;20219;-60
2021/11/22 04:40:49;;;;;;;13.23;8.87;;;5.80;99.90;;;6.71;100.00;100363.75;4992918;28;20492;-61
2021/11/22 04:43:17;;;;;;;13.27;8.17;;;5.80;99.90;;;6.68;100.00;100358.75;4993666;28;20297;-61
2021/11/22 04:45:47;;;;;;;10.43;7.97;;;5.80;99.90;;;6.70;100.00;100364.75;4992532;28;20298;-61
2021/11/22 04:48:16;;;;;;;12.43;7.40;;;5.80;99.90;;;6.70;100.00;100370.09;4992631;28;20226;-61
2021/11/22 04:50:44;;;;;;;9.63;6.37;;;5.80;99.90;;;6.56;100.00;100373.63;4992786;28;20297;-62
2021/11/22 04:53:12;;;;;;;8.77;6.67;;;5.80;99.90;;;6.62;100.00;100377.41;4992482;28;20203;-62
2021/11/22 04:55:41;;;;;;;8.50;6.37;;;5.70;99.90;;;6.63;100.00;100379.91;4992702;28;20237;-60
2021/11/22 04:58:09;;;;;;;8.03;6.17;;;5.70;99.90;;;6.59;100.00;100378.63;4992757;28;20238;-62
2021/11/22 05:00:39;;;;;;;11.30;5.90;;;5.80;99.90;;;6.62;100.00;100383.59;4992465;28;20206;-62
2021/11/22 05:03:09;;;;;;;8.33;6.17;;;5.70;99.90;;;6.63;100.00;100382.56;4992011;28;20674;-61
2021/11/22 05:05:37;;;;;;;10.43;6.10;;;5.80;99.90;;;6.77;100.00;100389.75;4992539;28;20203;-62
2021/11/22 05:08:07;;;;;;;7.07;5.30;;;5.80;99.90;;;6.69;100.00;100387.19;4992187;28;20317;-62
2021/11/22 05:10:41;;;;;;;7.43;5.33;;;5.80;99.90;;;6.70;100.00;100396.03;4992448;28;20278;-62
2021/11/22 05:13:11;;;;;;;6.73;5.10;;;5.80;99.90;;;6.65;100.00;100395.75;4992190;28;20286;-61
2021/11/22 05:15:42;;;;;;;8.73;5.50;;;5.80;99.90;;;6.51;100.00;100402.81;4992152;28;20550;-61
2021/11/22 05:18:13;;;;;;;9.27;5.70;;;5.80;99.90;;;6.74;100.00;100395.47;4991745;28;20667;-61
2021/11/22 05:20:44;;;;;;;8.43;5.53;;;5.80;99.90;;;6.76;100.00;100406.84;4992326;28;20282;-61
2021/11/22 05:23:15;;;;;;;8.43;5.60;;;5.80;99.90;;;6.74;100.00;100410.69;4992136;28;20410;-61
2021/11/22 05:25:44;;;;;;;10.70;6.20;;;5.80;99.90;;;6.69;100.00;100418.47;4992160;28;20279;-61
2021/11/22 05:28:13;;;;;;;7.97;6.03;;;5.80;99.90;;;6.79;100.00;100422.50;4992360;28;20782;-62
2021/11/22 05:30:42;;;;;;;10.97;5.50;;;5.80;99.90;;;6.76;100.00;100419.38;4992269;28;20247;-62
2021/11/22 05:33:12;;;;;;;9.53;5.80;;;5.80;99.90;;;6.79;100.00;100417.16;4991977;28;20215;-61
2021/11/22 05:35:40;;;;;;;6.57;5.23;;;5.90;99.90;;;6.84;100.00;100432.66;4991971;28;20203;-61
2021/11/22 05:38:09;;;;;;;9.30;5.30;;;5.90;99.90;;;6.92;100.00;100430.69;4991542;28;20214;-62
2021/11/22 05:40:40;;;;;;;8.77;5.47;;;5.90;99.90;;;6.87;100.00;100433.09;4991601;28;20287;-61
2021/11/22 05:43:08;;;;;;;6.80;5.70;;;5.90;99.90;;;6.89;100.00;100438.25;4991601;28;20204;-62
2021/11/22 05:45:37;;;;;;;10.77;6.20;;;5.90;99.90;;;6.89;100.00;100440.94;4991388;28;20692;-62
2021/11/22 05:48:07;;;;;;;7.67;5.37;;;5.90;99.90;;;6.70;100.00;100445.03;4991830;28;20285;-62
2021/11/22 05:50:38;;;;;;;7.37;5.77;;;5.90;99.90;;;6.73;100.00;100451.88;4991919;28;20214;-62
2021/11/22 05:53:08;;;;;;;8.30;5.83;;;5.90;99.90;;;6.77;100.00;100448.63;4991645;28;20274;-62
2021/11/22 05:55:38;;;;;;;6.60;5.37;;;5.90;99.90;;;6.68;100.00;100447.06;4991409;28;20199;-62
2021/11/22 05:58:11;;;;;;;9.87;5.80;;;5.80;99.90;;;6.71;100.00;100453.91;4991394;28;20578;-62
2021/11/22 06:00:42;;;;;;;7.87;5.30;;;5.80;99.90;;;6.71;100.00;100456.59;4991748;28;20277;-62
2021/11/22 06:03:11;;;;;;;8.80;6.10;;;5.80;99.90;;;6.61;100.00;100464.09;4991717;28;20207;-62
2021/11/22 06:05:40;;;;;;;7.33;5.77;;;5.80;99.90;;;6.59;100.00;100472.31;4991737;28;20301;-61
2021/11/22 06:08:09;;;;;;;6.73;5.10;;;5.80;99.90;;;6.85;100.00;100471.81;4991291;28;20311;-62
2021/11/22 06:10:37;;;;;;;10.03;6.10;;;5.90;99.90;;;6.71;100.00;100465.47;4992444;28;20206;-61
2021/11/22 06:13:09;;;;;;;6.87;5.33;;;5.90;99.90;;;6.65;100.00;100471.53;4992037;28;20240;-62
2021/11/22 06:15:37;;;;;;;9.27;5.80;;;5.90;99.90;;;6.70;100.00;100487.88;4992526;28;20191;-62
2021/11/22 06:18:06;;;;;;;6.80;5.27;;;5.90;99.90;;;6.84;100.00;100478.16;4992452;28;20280;-61
2021/11/22 06:20:34;;;;;;;9.17;5.33;;;5.90;99.90;;;6.92;100.00;100489.59;4992035;28;20692;-61
2021/11/22 06:23:05;;;;;;;7.03;4.87;;;6.00;99.90;;;6.74;100.00;100494.53;4991686;28;20757;-61
2021/11/22 06:25:33;;;;;;;6.37;4.97;;;5.90;99.90;;;6.68;100.00;100497.94;4992347;28;20197;-62
2021/11/22 06:28:02;;;;;;;9.50;5.53;;;5.90;99.90;;;6.61;100.00;100504.22;4992138;28;20213;-61
2021/11/22 06:30:31;;;;;;;7.37;4.80;;;5.90;99.90;;;6.91;100.00;100508.53;4992069;28;20318;-62
2021/11/22 06:32:59;;;;;;;8.20;5.50;;;5.90;99.90;;;6.76;100.00;100518.44;4991871;28;20207;-62
2021/11/22 06:35:33;;;;;;;5.97;5.20;;;5.90;99.90;;;6.69;100.00;100514.84;4992188;28;20191;-62
2021/11/22 06:38:02;;;;;;;6.77;4.87;;;5.90;99.90;;;6.78;100.00;100519.88;4991763;28;20209;-62
2021/11/22 06:40:32;;;;;;;5.90;4.43;;;5.90;99.90;;;6.97;100.00;100527.34;4992159;28;20310;-62
2021/11/22 06:43:00;;;;;;;4.83;4.23;;;6.00;99.90;;;6.84;100.00;100535.22;4992108;28;20200;-62
2021/11/22 06:45:28;;;;;;;7.10;4.47;;;6.00;99.90;;;6.93;100.00;100541.31;4991622;28;20243;-62
2021/11/22 06:47:57;;;;;;;5.53;4.30;;;6.00;99.90;;;6.97;100.00;100548.78;4991618;28;20607;-62
2021/11/22 06:50:26;;;;;;;5.37;4.60;;;6.00;99.90;;;6.92;100.00;100550.34;4993162;28;20282;-61
2021/11/22 06:52:54;;;;;;;5.63;4.17;;;6.00;99.90;;;6.92;100.00;100547.66;4995356;28;20299;-61
2021/11/22 06:55:23;;;;;;;6.57;4.57;;;6.00;99.90;;;7.01;100.00;100557.28;4995424;28;20237;-60
2021/11/22 06:57:53;;;;;;;5.03;4.13;;;6.00;99.90;;;7.21;100.00;100555.66;4995645;28;20614;-61
2021/11/22 07:00:22;;;;;;;4.20;3.80;;;6.10;99.90;;;7.02;100.00;100565.13;4995448;28;20768;-61
2021/11/22 07:02:51;;;;;;;5.33;3.90;;;6.10;99.90;;;6.83;100.00;100568.34;4995579;28;20294;-61
2021/11/22 07:05:22;;;;;;;8.20;4.17;;;6.10;99.90;;;6.80;100.00;100574.09;4995523;28;20212;-60
2021/11/22 07:07:51;;;;;;;5.60;4.00;;;6.00;99.90;;;6.80;100.00;100576.75;4994872;28;20295;-60
2021/11/22 07:10:21;;;;;;;4.77;3.90;;;6.00;99.90;;;7.00;100.00;100583.22;4995408;28;20317;-60
2021/11/22 07:12:51;;;;;;;3.87;3.57;;;6.10;99.90;;;6.88;100.00;100587.38;4995497;28;20188;-61
2021/11/22 07:15:22;;;;;;;4.93;3.37;;;6.10;99.90;;;7.21;100.00;100594.00;4995244;28;20285;-60
2021/11/22 07:17:51;;;;;;;4.33;3.20;;;6.20;99.90;;;7.24;100.00;100598.16;4995350;28;20191;-61
2021/11/22 07:20:21;;;;;;;3.90;3.40;;;6.20;99.90;;;7.14;100.00;100600.28;4995356;28;20303;-61
2021/11/22 07:22:50;;;;;;;3.63;3.03;;;6.20;99.90;;;7.26;100.00;100599.63;4995081;28;20218;-61
2021/11/22 07:25:19;;;;;;;4.70;3.23;;;6.20;99.90;;;7.25;100.00;100614.06;4994906;28;20678;-59
2021/11/22 07:27:48;;;;;;;4.50;3.10;;;6.20;99.90;;;7.13;100.00;100612.88;4994901;28;20211;-60
2021/11/22 07:30:19;;;;;;;4.60;3.20;;;6.20;99.90;;;7.17;100.00;100626.72;4995188;28;20315;-60
2021/11/22 07:32:52;;;;;;;4.40;3.10;;;6.20;99.90;;;7.29;100.00;100630.56;4995301;28;20275;-61
2021/11/22 07:35:22;;;;;;;5.03;3.20;;;6.30;99.90;;;7.18;100.00;100629.22;4995150;28;20196;-60
2021/11/22 07:37:52;;;;;;;4.47;3.00;;;6.30;99.90;;;7.14;100.00;100633.28;4995170;28;20599;-61
2021/11/22 07:40:22;;;;;;;3.87;3.33;;;6.30;99.90;;;7.30;100.00;100633.09;4990800;28;20226;-61
2021/11/22 07:42:51;;;;;;;3.50;2.80;;;6.30;99.90;;;7.38;100.00;100641.00;4992759;28;20578;-61
2021/11/22 07:45:20;;;;;;;4.33;3.17;;;6.40;99.90;;;7.31;100.00;100640.09;4988310;28;20196;-61
2021/11/22 07:47:50;;;;;;;4.07;3.47;;;6.30;99.90;;;7.23;100.00;100642.88;4989237;28;20235;-61
2021/11/22 07:50:20;;;;;;;6.07;3.30;;;6.40;99.90;;;7.21;100.00;100647.59;4991576;28;20223;-61
2021/11/22 07:52:49;;;;;;;3.77;3.37;;;6.30;99.90;;;7.30;100.00;100646.47;4991416;28;20297;-61
2021/11/22 07:55:20;;;;;;;3.93;3.07;;;6.30;99.90;;;7.31;100.00;100650.81;4991526;28;20213;-61
2021/11/22 07:57:49;;;;;;;4.03;2.83;;;6.30;99.90;;;7.42;100.00;100653.00;4991472;28;20234;-62
2021/11/22 08:00:19;;;;;;;5.73;3.10;;;6.40;99.90;;;7.47;100.00;100660.50;4991355;28;20293;-61
2021/11/22 08:02:48;;;;;;;3.30;2.77;;;6.40;99.90;;;7.45;100.00;100662.53;4990905;28;20710;-61
2021/11/22 08:05:22;;;;;;;5.13;3.27;;;6.50;99.90;;;7.44;100.00;100674.28;4991224;28;20211;-63
2021/11/22 08:07:53;;;;;;;3.90;3.13;;;6.50;99.90;;;7.50;100.00;100678.03;4993181;28;20207;-65
2021/11/22 08:10:27;;;;;;;3.70;3.00;;;6.50;99.90;;;7.43;100.00;100680.66;4991887;28;20306;-65
2021/11/22 08:12:58;;;;;;;3.63;3.00;;;6.50;99.90;;;7.42;100.00;100687.03;4988378;28;20274;-61
2021/11/22 08:15:30;;;;;;;5.00;2.83;;;6.50;99.90;;;7.43;100.00;100688.69;4992283;28;20270;-60
2021/11/22 08:18:00;;;;;;;3.03;2.67;;;6.50;99.90;;;7.54;100.00;100696.28;4992025;28;20203;-61
2021/11/22 08:20:30;;;;;;;5.10;2.50;;;6.50;99.90;;;7.44;100.00;100696.53;4991835;28;20211;-60
2021/11/22 08:22:59;;;;;;;2.43;2.23;;;6.50;99.90;;;7.50;100.00;100711.06;4992386;28;20203;-60
2021/11/22 08:25:32;;;;;;;5.00;2.33;;;6.50;99.90;;;7.53;100.00;100704.47;4992144;28;20290;-60
2021/11/22 08:28:00;;;;;;;3.83;2.10;;;6.50;99.90;;;7.62;100.00;100714.94;4991896;28;20231;-60
2021/11/22 08:30:30;;;;;;;2.50;2.30;;;6.50;99.90;;;7.67;100.00;100720.56;4992059;28;20285;-60
2021/11/22 08:32:59;;;;;;;3.97;2.53;;;6.60;99.90;;;7.64;100.00;100717.41;4991986;28;20215;-61
2021/11/22 08:35:31;;;;;;;3.30;2.07;;;6.60;99.90;;;7.62;100.00;100731.00;4992453;28;20261;-67
2021/11/22 08:38:01;;;;;;;2.37;2.00;;;6.60;99.90;;;7.76;100.00;100732.84;4995057;28;20705;-67
2021/11/22 08:40:32;;;;;;;3.47;2.00;;;6.70;99.90;;;7.80;100.00;100741.31;4992141;28;20206;-63
2021/11/22 08:43:00;;;;;;;3.30;1.60;;;6.70;99.90;;;7.59;100.00;100741.28;4992429;28;20561;-65
2021/11/22 08:45:28;;;;;;;2.53;1.70;;;6.70;99.90;;;7.57;100.00;100749.50;4992018;28;20769;-62
2021/11/22 08:47:57;;;;;;;3.80;2.00;;;6.70;99.90;;;7.68;100.00;100753.56;4991723;28;20238;-62
2021/11/22 08:50:25;;;;;;;2.70;2.20;;;6.70;99.90;;;7.72;100.00;100760.22;4991325;28;20222;-62
2021/11/22 08:52:54;;;;;;;2.07;1.50;;;6.70;99.90;;;7.53;100.00;100761.59;4991190;28;20379;-62
2021/11/22 08:55:24;;;;;;;2.63;1.70;;;6.60;99.90;;;7.59;100.00;100758.19;4991036;28;20327;-61
2021/11/22 08:57:53;;;;;;;2.40;1.70;;;6.60;99.90;;;7.47;100.00;100762.34;4990715;28;20211;-64
2021/11/22 09:00:25;;;;;;;1.80;1.70;;;6.60;99.90;;;7.46;100.00;100768.72;4991117;28;20603;-62
2021/11/22 09:02:55;;;;;;;1.93;1.70;;;6.60;99.90;;;7.34;100.00;100776.38;4991050;28;20219;-61
2021/11/22 09:05:26;;;;;;;2.17;1.70;;;6.50;99.90;;;7.39;100.00;100783.91;4990335;28;20221;-63
2021/11/22 09:07:55;;;;;;;2.90;2.00;;;6.50;99.90;;;7.41;100.00;100787.19;4990580;28;20282;-63
2021/11/22 09:10:25;;;;;;;2.60;1.67;;;6.50;99.90;;;7.48;100.00;100785.44;4990665;28;20611;-63
2021/11/22 09:12:53;;;;;;;1.57;1.43;;;6.50;99.90;;;7.59;100.00;100786.84;4990623;28;20218;-62
2021/11/22 09:15:22;;;;;;;1.40;1.30;;;6.50;99.90;;;7.53;100.00;100795.59;4990540;28;20624;-61
2021/11/22 09:17:56;;;;;;;2.20;1.40;;;6.50;99.90;;;7.51;100.00;100806.53;4990737;28;20835;-59
2021/11/22 09:20:25;;;;;;;1.40;1.30;;;6.50;99.90;;;7.40;100.00;100809.66;4990839;28;20196;-60
2021/11/22 09:22:57;;;;;;;1.33;1.23;;;6.50;99.90;;;7.55;100.00;100812.34;4990502;28;20211;-57
2021/11/22 09:25:27;;;;;;;2.13;1.40;;;6.50;99.90;;;7.42;100.00;100813.81;4990825;28;20627;-58
2021/11/22 09:27:56;;;;;;;1.93;1.43;;;6.50;99.90;;;7.42;100.00;100819.16;4990513;28;20303;-60
2021/11/22 09:30:25;;;;;;;2.23;1.40;;;6.50;99.90;;;7.30;100.00;100820.66;4990597;28;20340;-59
2021/11/22 09:32:53;;;;;;;2.30;1.57;;;6.50;99.90;;;7.47;100.00;100820.47;4990226;28;20282;-63
2021/11/22 09:35:26;;;;;;;2.00;1.30;;;6.50;99.90;;;7.55;100.00;100813.19;4990598;28;20202;-62
2021/11/22 09:37:56;;;;;;;2.17;1.40;;;6.50;99.90;;;7.63;100.00;100823.00;4990495;28;20287;-64
2021/11/22 09:40:26;;;;;;;2.73;1.40;;;6.60;99.90;;;7.66;100.00;100826.13;4990416;28;20219;-61
2021/11/22 09:42:56;;;;;;;1.90;1.33;;;6.60;99.90;;;7.87;100.00;100820.88;4990444;28;20230;-62
2021/11/22 09:45:27;;;;;;;2.63;1.30;;;6.70;99.90;;;7.60;100.00;100823.34;4990433;28;20266;-61
2021/11/22 09:47:57;;;;;;;1.57;1.20;;;6.70;99.90;;;7.81;100.00;100828.81;4989774;28;20831;-61
2021/11/22 09:50:26;;;;;;;1.00;1.00;;;6.70;99.90;;;8.01;100.00;100832.59;4990339;28;20209;-62
2021/11/22 09:52:55;;;;;;;1.53;1.00;;;6.80;99.90;;;8.05;100.00;100826.66;4990378;28;20363;-61
2021/11/22 09:55:24;;;;;;;1.40;0.90;;;6.90;99.90;;;7.98;100.00;100839.16;4989910;28;20648;-61
2021/11/22 09:57:53;;;;;;;0.83;0.83;;;6.90;99.90;;;7.95;100.00;100836.03;4990245;28;20458;-64
2021/11/22 10:00:22;;;;;;;3.90;0.87;;;6.90;99.90;;;7.79;100.00;100838.91;4990345;28;20241;-63
2021/11/22 10:02:53;;;;;;;1.13;1.00;;;6.90;99.90;;;7.64;100.00;100849.63;4989887;28;20250;-62
2021/11/22 10:05:29;;;;;;;1.10;0.80;;;6.80;99.90;;;7.68;100.00;100850.09;4990134;28;20192;-61
2021/11/22 10:08:05;;;;;;;1.30;0.90;;;6.80;99.90;;;7.74;100.00;100847.50;4990074;28;20270;-60
2021/11/22 10:10:42;;;;;;;1.97;0.80;;;6.80;99.90;;;7.74;100.00;100852.03;4990081;28;20214;-59
2021/11/22 10:13:28;;;;;;;1.00;0.90;;;6.80;99.90;;;7.77;100.00;100854.34;4990032;28;20187;-65
2021/11/22 10:16:01;;;;;;;1.57;1.30;;;6.80;99.90;;;7.71;100.00;100857.78;4989029;28;20279;-66
2021/11/22 10:18:33;;;;;;;1.23;1.07;;;6.80;99.90;;;7.88;100.00;100848.53;4989113;28;20199;-66
2021/11/22 10:21:07;;;;;;;1.67;1.00;;;6.90;99.90;;;7.98;100.00;100846.41;4989069;28;20206;-66
2021/11/22 10:23:40;;;;;;;1.07;1.00;;;6.90;99.90;;;7.89;100.00;100847.50;4989230;28;20190;-66
2021/11/22 10:26:15;;;;;;;1.10;0.80;;;7.00;99.90;;;8.11;100.00;100854.63;4991267;28;20188;-66
2021/11/22 10:28:48;;;;;;;0.77;0.60;;;7.00;99.90;;;7.99;100.00;100862.31;4992630;28;20187;-66